Edson, Wisconsin
Current Conditions -  °F | °C
As of 7:56 PM on Friday 24 Oct 2014 (Local Time) from KEAU Reporting Station
Haze Haze  
Wind Chill: 56°   Ceiling: 1900
Heat Index: 56°   Visibility: 6mi
Dew Point: 55°   Wind: 5mph
Humidity: 97%   Direction: 210°SSW
Pressure: 29.87"   Gusts: NA
Location:  44.9343°N, 91.0261°W
Report Text: KEAU 250056Z 21004KT 6SM BR OVC019 13/13 A2987 RMK AO2 SLP117 T01330128
Loading
Personal Weather Stations






























Interactive Weather Map
Tropical Storm Tracking
New forecast layout! Learn more

10-Day Weather Forecast

Advertisements
Track Severe Weather on mobile